Terminal Aerodrome Forecast
Issued by NWS

Home | Current Version | Previous Version | Text Only | Print | Product List | Glossary On
Versions: 1 2 3 4 5 6 7 8 9 10 11 12 13 14 15
000
FTUS43 KMPX 291517 AAA
TAFRNH
TAF AMD
KRNH 291517Z 2915/3012 30010KT P6SM SCT015 BKN020
      TEMPO 2917/2919 SCT020 BKN035
     FM291900 30008KT P6SM SCT035
     FM300000 VRB03KT P6SM BKN120
     FM300600 00000KT P6SM VCSH BKN060=

USA.gov is the U.S. government's official web portal to all federal, state and local government web resources and services.